createdAt,value
2023-04-28T09:21:57.195Z,96271.03
2023-04-28T09:24:30.813Z,96265.91
2023-04-28T09:25:32.270Z,96272.19
2023-04-28T09:26:51.207Z,96279.84
2023-04-28T09:27:53.325Z,96280.22
2023-04-28T09:29:11.897Z,96276.59
2023-04-28T09:30:13.566Z,96274.56
2023-04-28T09:32:36.201Z,96280.94
2023-04-28T09:33:37.572Z,96272.06
2023-04-28T09:34:45.721Z,96278.28
2023-04-28T09:35:48.500Z,96278.50
2023-04-28T09:36:49.905Z,96279.84
2023-04-28T09:37:58.892Z,96283.03
2023-04-28T09:39:01.148Z,96269.81
2023-04-28T09:40:08.738Z,96274.31
2023-04-28T09:41:10.183Z,96279.78
2023-04-28T09:42:30.694Z,96272.00
2023-04-28T09:43:34.896Z,96275.44
2023-04-28T09:44:36.297Z,96277.59
2023-04-28T09:45:42.434Z,96280.31
2023-04-28T09:46:47.553Z,96265.53
2023-04-28T09:47:49.633Z,96270.88
2023-04-28T09:49:01.089Z,96274.13
2023-04-28T09:50:09.451Z,96274.13
2023-04-28T09:51:12.885Z,96274.44
2023-04-28T09:53:29.529Z,96263.22
2023-04-28T09:54:33.577Z,96272.47
2023-04-28T09:55:36.886Z,96277.72
2023-04-28T09:56:42.336Z,96273.53
2023-04-28T09:57:47.243Z,96274.41
2023-04-28T09:58:52.882Z,96274.06
2023-04-28T09:59:54.442Z,96278.09
2023-04-28T10:00:58.070Z,96272.56
2023-04-28T10:02:00.913Z,96264.69
2023-04-28T10:03:09.416Z,96276.63
2023-04-28T10:04:13.033Z,96277.75
2023-04-28T10:05:16.580Z,96271.00
2023-04-28T10:20:23.096Z,96283.47
2023-04-28T10:21:26.670Z,96252.03
2023-04-28T10:23:56.637Z,96274.66
2023-04-28T10:25:14.172Z,96280.72
2023-04-28T10:26:21.997Z,96274.22
2023-04-28T10:27:30.323Z,96273.56
2023-04-28T10:28:31.651Z,96276.09
2023-04-28T10:29:33.768Z,96268.09
2023-04-28T10:30:35.916Z,96284.66
2023-04-28T10:31:37.307Z,96283.00
2023-04-28T10:32:39.205Z,96255.91
2023-04-28T10:33:41.666Z,96267.72
2023-04-28T10:34:43.223Z,96272.63
2023-04-28T10:35:47.535Z,96270.75
2023-04-28T10:36:50.931Z,96263.81
2023-04-28T10:38:09.711Z,96274.34
2023-04-28T10:39:12.692Z,96265.03
2023-04-28T10:40:39.437Z,96275.13
2023-04-28T10:41:41.707Z,96267.34
2023-04-28T10:42:54.320Z,96279.75
2023-04-28T10:43:55.660Z,96279.44
2023-04-28T10:44:57.053Z,96274.31
2023-04-28T10:46:00.993Z,96279.31
2023-04-28T10:47:07.992Z,96271.22
2023-04-28T10:48:09.379Z,96280.81
2023-04-28T10:49:10.749Z,96281.78
2023-04-28T10:50:12.389Z,96281.13
2023-04-28T10:51:16.919Z,96278.75
2023-04-28T10:52:33.229Z,96279.53
2023-04-28T10:53:47.429Z,96277.66
2023-04-28T10:55:26.795Z,96281.63
2023-04-28T10:56:28.204Z,96275.22
2023-04-28T10:57:29.620Z,96277.88
2023-04-28T10:58:32.451Z,96277.56
2023-04-28T10:59:33.894Z,96276.31
2023-04-28T11:00:35.458Z,96280.50
2023-04-28T11:01:37.039Z,96281.03
2023-04-28T11:02:43.626Z,96277.25
2023-04-28T11:03:49.583Z,96283.78
2023-04-28T11:05:13.917Z,96262.31
2023-04-28T11:06:41.641Z,96268.31
2023-04-28T11:08:21.552Z,96278.63
2023-04-28T11:09:32.218Z,96280.81
2023-04-28T11:11:11.262Z,96274.09
2023-04-28T11:12:13.461Z,96275.75
2023-04-28T11:13:34.662Z,96269.97
2023-04-28T11:14:37.885Z,96271.47
2023-04-28T11:15:39.414Z,96279.13
2023-04-28T11:16:59.818Z,96271.66
2023-04-28T11:18:04.506Z,96272.00
2023-04-28T11:19:13.003Z,96262.63
2023-04-28T11:20:15.782Z,96280.00
2023-04-28T11:21:17.742Z,96269.66
2023-04-28T11:22:21.706Z,96273.03
2023-04-28T11:23:28.275Z,96266.75
2023-04-28T11:24:31.145Z,96274.72
2023-04-28T11:25:56.001Z,96265.78
2023-04-28T11:29:15.494Z,96282.91
2023-04-28T11:31:22.211Z,96271.22
2023-04-28T11:39:08.748Z,96278.28
2023-04-28T11:40:11.789Z,96279.16
2023-04-28T11:41:13.245Z,96277.97
2023-04-28T11:43:46.475Z,96258.00
2023-04-28T11:44:53.221Z,96247.47
2023-04-28T11:45:54.934Z,96276.59
2023-04-28T11:47:00.655Z,96278.59
2023-04-28T11:48:20.974Z,96254.63
2023-04-28T11:49:27.166Z,96271.84
2023-04-28T11:50:38.070Z,96274.03
2023-04-28T11:51:39.682Z,96265.72
2023-04-28T11:54:19.890Z,96268.63
2023-04-28T11:55:21.622Z,96262.09
2023-04-28T11:56:23.303Z,96259.88
2023-04-28T11:57:25.387Z,96260.97
2023-04-28T11:58:27.858Z,96267.84
2023-04-28T11:59:21.555Z,96266.44
2023-04-28T11:59:34.244Z,96263.38
2023-04-28T12:00:35.672Z,96261.03
2023-04-28T12:01:53.801Z,96261.00
2023-04-28T12:02:55.510Z,96250.56
2023-04-28T12:03:57.400Z,96256.44
2023-04-28T12:05:07.783Z,96229.81
2023-04-28T12:06:12.654Z,96255.13
2023-04-28T12:07:18.358Z,96248.63
2023-04-28T12:08:29.583Z,96253.28
2023-04-28T12:09:32.578Z,96255.78
2023-04-28T12:10:34.001Z,96266.09
2023-04-28T12:11:35.498Z,96246.28
2023-04-28T12:13:42.291Z,96255.88
2023-04-28T12:14:57.426Z,96259.59
2023-04-28T12:16:01.946Z,96256.44
2023-04-28T12:17:04.098Z,96254.09
2023-04-28T12:18:12.266Z,96242.44
2023-04-28T12:19:15.196Z,96260.50
2023-04-28T12:20:38.983Z,96263.63
2023-04-28T12:21:41.104Z,96256.25
2023-04-28T12:22:47.498Z,96266.09
2023-04-28T12:23:48.905Z,96257.44
2023-04-28T12:25:10.824Z,96264.47
2023-04-28T12:26:12.320Z,96255.00
2023-04-28T12:27:16.153Z,96260.84
2023-04-28T12:28:17.639Z,96263.47
2023-04-28T12:29:42.521Z,96269.00
2023-04-28T12:30:44.456Z,96266.84
2023-04-28T12:31:53.119Z,96262.31
2023-04-28T12:32:56.045Z,96260.97
2023-04-28T12:33:57.970Z,96258.38
2023-04-28T12:34:59.398Z,96263.44
2023-04-28T12:36:01.424Z,96252.97
2023-04-28T12:37:05.767Z,96259.28
2023-04-28T12:38:11.283Z,96268.00
2023-04-28T12:39:20.086Z,96266.41
2023-04-28T12:40:22.041Z,96264.44
2023-04-28T12:41:24.767Z,96263.09
2023-04-28T12:42:26.580Z,96261.66
2023-04-28T12:43:29.615Z,96262.72
2023-04-28T12:44:35.760Z,96261.41
2023-04-28T12:45:38.874Z,96259.97
2023-04-28T12:46:40.567Z,96258.69
2023-04-28T12:47:42.683Z,96258.78
2023-04-28T12:48:44.086Z,96257.13
2023-04-28T12:49:45.784Z,96258.91
2023-04-28T12:50:47.359Z,96257.88
2023-04-28T12:51:48.917Z,96246.75
2023-04-28T12:52:50.377Z,96248.31
2023-04-28T12:53:51.710Z,96250.03
2023-04-28T12:54:53.046Z,96247.94
2023-04-28T12:55:54.589Z,96233.81
2023-04-28T12:56:56.268Z,96245.56
2023-04-28T12:57:57.748Z,96238.97
2023-04-28T12:58:59.730Z,96234.69
2023-04-28T13:00:01.135Z,96231.84
2023-04-28T13:01:02.587Z,96212.41
2023-04-28T13:02:04.017Z,96200.28
2023-04-28T13:03:05.571Z,96202.94
2023-04-28T13:04:07.357Z,96207.59
2023-04-28T13:05:09.335Z,96219.72
2023-04-28T13:06:11.114Z,96210.00
2023-04-28T13:07:13.339Z,96223.56
2023-04-28T13:08:14.974Z,96227.75
2023-04-28T13:09:16.741Z,96228.69
2023-04-28T13:10:18.893Z,96238.16
2023-04-28T13:11:23.107Z,96231.91
2023-04-28T13:12:25.051Z,96240.31
2023-04-28T13:13:26.721Z,96231.78
2023-04-28T13:14:28.581Z,96230.81
2023-04-28T13:15:31.135Z,96242.94
2023-04-28T13:16:32.861Z,96235.88
2023-04-28T13:17:34.972Z,96246.34
2023-04-28T13:18:36.470Z,96244.78
2023-04-28T13:19:39.164Z,96237.00
2023-04-28T13:20:40.759Z,96236.41
2023-04-28T13:21:42.931Z,96228.81
2023-04-28T13:22:44.353Z,96233.16
2023-04-28T13:23:45.868Z,96231.59
2023-04-28T13:24:50.712Z,96232.81
2023-04-28T13:25:52.173Z,96231.47
2023-04-28T13:26:53.555Z,96233.25
2023-04-28T13:27:55.262Z,96235.25
2023-04-28T13:28:57.006Z,96227.44
2023-04-28T13:29:59.135Z,96233.03
2023-04-28T13:31:00.922Z,96234.09
2023-04-28T13:38:13.642Z,96228.31
2023-04-28T13:39:15.098Z,96225.06
2023-04-28T13:40:16.554Z,96228.06
2023-04-28T13:41:18.423Z,96231.66
2023-04-28T13:44:27.366Z,96229.97
2023-04-28T14:16:58.766Z,96212.56
2023-04-28T14:18:00.362Z,96225.09
2023-04-28T14:19:01.780Z,96227.63
2023-04-28T14:20:04.201Z,96225.09
2023-04-28T14:21:08.115Z,96219.06
2023-04-28T14:22:09.741Z,96222.97
2023-04-28T14:23:11.244Z,96219.78
2023-04-28T14:24:12.892Z,96211.03
2023-04-28T14:25:14.368Z,96212.31
2023-04-28T14:26:15.827Z,96216.94
2023-04-28T14:29:50.646Z,96216.75
2023-04-28T14:30:53.927Z,96218.63
2023-04-28T14:31:55.486Z,96216.00
2023-04-28T14:35:22.921Z,96199.81
2023-04-28T14:55:05.288Z,96196.97
